createdAt,value
2022-12-26T00:00:43.739Z,99.54
2022-12-26T00:01:43.510Z,99.54
2022-12-26T00:02:43.516Z,99.54
2022-12-26T00:03:43.492Z,99.54
2022-12-26T00:04:50.812Z,99.44
2022-12-26T00:05:43.272Z,99.54
2022-12-26T00:06:43.189Z,99.54
2022-12-26T00:07:43.124Z,99.54
2022-12-26T00:08:43.066Z,99.54
2022-12-26T00:09:42.969Z,99.44
2022-12-26T00:10:42.908Z,99.54
2022-12-26T00:12:03.898Z,99.65
2022-12-26T00:12:42.809Z,99.65
2022-12-26T00:13:42.741Z,99.65
2022-12-26T00:14:42.703Z,99.65
2022-12-26T00:15:42.654Z,99.54
2022-12-26T00:16:42.608Z,99.65
2022-12-26T00:17:42.514Z,99.54
2022-12-26T00:18:42.424Z,99.54
2022-12-26T00:19:42.365Z,99.34
2022-12-26T00:20:42.273Z,99.34
2022-12-26T00:21:42.259Z,99.34
2022-12-26T00:22:42.198Z,99.44
2022-12-26T00:23:42.129Z,99.44
2022-12-26T00:24:42.075Z,99.44
2022-12-26T00:25:42.005Z,99.54
2022-12-26T00:26:41.919Z,99.44
2022-12-26T00:27:41.848Z,99.44
2022-12-26T00:28:41.790Z,99.44
2022-12-26T00:30:50.960Z,99.65
2022-12-26T00:31:51.860Z,99.75
2022-12-26T00:32:51.854Z,99.44
2022-12-26T00:33:51.689Z,99.44
2022-12-26T00:34:51.679Z,99.44
2022-12-26T00:35:51.625Z,99.34
2022-12-26T00:36:51.573Z,99.13
2022-12-26T00:37:51.511Z,99.24
2022-12-26T00:38:51.374Z,99.24
2022-12-26T00:39:51.322Z,99.13
2022-12-26T00:40:51.331Z,99.03
2022-12-26T00:41:51.249Z,99.03
2022-12-26T00:42:51.262Z,98.93
2022-12-26T00:43:51.092Z,98.93
2022-12-26T00:44:50.988Z,99.24
2022-12-26T00:45:51.021Z,99.03
2022-12-26T00:46:50.924Z,99.03
2022-12-26T00:49:00.046Z,98.93
2022-12-26T00:50:14.350Z,99.03
2022-12-26T00:51:00.923Z,99.03
2022-12-26T00:52:00.829Z,99.03
2022-12-26T00:53:00.807Z,98.93
2022-12-26T00:54:00.792Z,98.93
2022-12-26T00:55:00.728Z,98.93
2022-12-26T00:56:00.611Z,99.13
2022-12-26T00:57:00.556Z,99.03
2022-12-26T00:58:00.469Z,99.03
2022-12-26T00:59:00.395Z,99.03
2022-12-26T01:00:00.361Z,99.03
2022-12-26T01:01:00.369Z,99.03
2022-12-26T01:02:00.488Z,99.03
2022-12-26T01:03:00.348Z,99.13
2022-12-26T01:04:00.066Z,99.03
2022-12-26T01:05:00.007Z,98.93
2022-12-26T01:06:20.935Z,98.93
2022-12-26T01:06:59.854Z,99.13
2022-12-26T01:08:22.693Z,99.03
2022-12-26T01:08:59.837Z,98.93
2022-12-26T01:09:59.723Z,99.03
2022-12-26T01:10:59.704Z,98.93
2022-12-26T01:11:59.575Z,98.83
2022-12-26T01:12:59.520Z,98.83
2022-12-26T01:13:59.459Z,98.93
2022-12-26T01:14:59.419Z,98.83
2022-12-26T01:15:59.389Z,98.93
2022-12-26T01:16:59.327Z,98.93
2022-12-26T01:17:59.229Z,98.93
2022-12-26T01:18:59.096Z,98.93
2022-12-26T01:19:59.055Z,98.93
2022-12-26T01:20:59.029Z,98.83
2022-12-26T01:21:58.899Z,99.03
2022-12-26T01:22:58.905Z,98.93
2022-12-26T01:25:08.025Z,98.83
2022-12-26T01:26:18.455Z,98.72
2022-12-26T01:27:08.860Z,98.93
2022-12-26T01:28:08.822Z,98.72
2022-12-26T01:29:08.729Z,98.52
2022-12-26T01:30:08.704Z,98.52
2022-12-26T01:31:08.693Z,98.52
2022-12-26T01:32:08.581Z,98.42
2022-12-26T01:33:08.536Z,98.42
2022-12-26T01:34:08.440Z,98.32
2022-12-26T01:35:08.427Z,98.37
2022-12-26T01:36:08.387Z,98.37
2022-12-26T01:37:08.299Z,98.16
2022-12-26T01:38:08.239Z,98.16
2022-12-26T01:39:08.151Z,98.16
2022-12-26T01:40:08.149Z,98.27
2022-12-26T01:41:08.054Z,98.47
2022-12-26T01:42:28.943Z,98.37
2022-12-26T01:43:07.854Z,98.27
2022-12-26T01:44:07.814Z,98.37
2022-12-26T01:45:07.741Z,98.27
2022-12-26T01:46:07.760Z,97.96
2022-12-26T01:47:07.704Z,97.86
2022-12-26T01:48:07.658Z,97.96
2022-12-26T01:49:07.582Z,97.86
2022-12-26T01:50:07.424Z,97.75
2022-12-26T01:51:07.392Z,97.75
2022-12-26T01:52:07.380Z,97.86
2022-12-26T01:53:07.276Z,97.86
2022-12-26T01:54:40.220Z,97.96
2022-12-26T01:55:07.123Z,97.75
2022-12-26T01:56:07.033Z,97.75
2022-12-26T01:57:07.008Z,97.65
2022-12-26T01:58:06.929Z,97.55
2022-12-26T01:59:06.838Z,97.75
2022-12-26T02:00:06.784Z,97.65
2022-12-26T02:01:06.877Z,97.96
2022-12-26T02:02:06.902Z,97.96
2022-12-26T02:03:06.633Z,97.96
2022-12-26T02:04:06.557Z,97.75
2022-12-26T02:05:06.450Z,97.96
2022-12-26T02:06:06.450Z,97.75
2022-12-26T02:07:06.357Z,97.75
2022-12-26T02:08:06.316Z,97.75
2022-12-26T02:09:06.216Z,97.75
2022-12-26T02:10:06.194Z,97.75
2022-12-26T02:11:06.114Z,97.75
2022-12-26T02:12:35.508Z,97.55
2022-12-26T02:13:06.008Z,97.55
2022-12-26T02:14:05.907Z,97.55
2022-12-26T02:15:05.871Z,97.75
2022-12-26T02:16:05.835Z,97.75
2022-12-26T02:17:05.764Z,97.34
2022-12-26T02:18:05.702Z,97.45
2022-12-26T02:19:05.669Z,97.45
2022-12-26T02:20:05.578Z,97.55
2022-12-26T02:21:05.492Z,97.45
2022-12-26T02:22:05.480Z,97.24
2022-12-26T02:23:05.426Z,97.34
2022-12-26T02:24:05.340Z,97.45
2022-12-26T02:25:05.229Z,97.45
2022-12-26T02:26:05.123Z,97.45
2022-12-26T02:27:05.162Z,97.45
2022-12-26T02:28:05.081Z,97.55
2022-12-26T02:29:04.984Z,97.65
2022-12-26T02:30:04.956Z,97.55
2022-12-26T02:31:04.894Z,97.65
2022-12-26T02:32:04.854Z,97.65
2022-12-26T02:33:04.834Z,97.65
2022-12-26T02:34:04.695Z,97.55
2022-12-26T02:35:04.697Z,97.75
2022-12-26T02:36:04.621Z,97.75
2022-12-26T02:37:04.528Z,97.75
2022-12-26T02:38:04.440Z,97.86
2022-12-26T02:39:45.541Z,97.86
2022-12-26T02:40:04.332Z,97.96
2022-12-26T02:41:04.281Z,98.07
2022-12-26T02:42:04.186Z,98.27
2022-12-26T02:43:04.185Z,98.47
2022-12-26T02:44:04.063Z,98.37
2022-12-26T02:45:04.063Z,98.58
2022-12-26T02:46:03.961Z,98.68
2022-12-26T02:47:03.875Z,98.99
2022-12-26T02:48:03.820Z,99.09
2022-12-26T02:49:03.775Z,99.19
2022-12-26T02:50:03.677Z,99.29
2022-12-26T02:51:03.617Z,99.29
2022-12-26T02:52:03.548Z,99.40
2022-12-26T02:53:03.489Z,99.60
2022-12-26T02:54:03.395Z,99.70
2022-12-26T02:55:03.316Z,99.91
2022-12-26T02:56:03.273Z,99.99
2022-12-26T02:57:03.215Z,99.99
2022-12-26T02:58:03.131Z,99.99
2022-12-26T02:59:03.049Z,99.99
2022-12-26T03:00:03.288Z,99.99
2022-12-26T03:01:03.307Z,99.99
2022-12-26T03:02:03.079Z,99.99
2022-12-26T03:03:02.964Z,99.99
2022-12-26T03:04:02.859Z,99.99
2022-12-26T03:05:02.727Z,99.99
2022-12-26T03:06:02.664Z,99.99
2022-12-26T03:07:02.603Z,99.99
2022-12-26T03:08:02.521Z,99.99
2022-12-26T03:09:02.536Z,99.99
2022-12-26T03:10:02.408Z,99.99
2022-12-26T03:11:02.385Z,99.99
2022-12-26T03:12:23.309Z,99.99
2022-12-26T03:13:02.255Z,99.99
2022-12-26T03:14:02.195Z,99.99
2022-12-26T03:15:02.117Z,99.99
2022-12-26T03:16:02.045Z,99.99
2022-12-26T03:17:02.048Z,99.99
2022-12-26T03:18:01.905Z,99.99
2022-12-26T03:19:01.837Z,99.99
2022-12-26T03:20:01.911Z,99.99
2022-12-26T03:21:01.709Z,99.99
2022-12-26T03:22:01.578Z,99.99
2022-12-26T03:23:01.581Z,99.99
2022-12-26T03:24:01.499Z,99.99
2022-12-26T03:25:01.447Z,99.99
2022-12-26T03:26:01.362Z,99.99
2022-12-26T03:27:01.354Z,99.99
2022-12-26T03:28:01.301Z,99.99
2022-12-26T03:29:01.213Z,99.99
2022-12-26T03:30:01.171Z,99.99
2022-12-26T03:31:01.074Z,99.99
2022-12-26T03:32:01.028Z,99.99
2022-12-26T03:33:00.969Z,99.99
2022-12-26T03:34:00.896Z,99.99
2022-12-26T03:35:00.832Z,99.99
2022-12-26T03:36:00.764Z,99.99
2022-12-26T03:37:00.683Z,99.99
2022-12-26T03:38:00.686Z,99.99
2022-12-26T03:39:00.579Z,99.99
2022-12-26T03:40:00.516Z,99.99
2022-12-26T03:41:00.425Z,99.99
2022-12-26T03:42:00.371Z,99.99
2022-12-26T03:43:00.246Z,99.99
2022-12-26T03:44:00.210Z,99.99
2022-12-26T03:45:00.207Z,99.99
2022-12-26T03:46:00.159Z,99.99
2022-12-26T03:47:00.104Z,99.99
2022-12-26T03:47:59.983Z,99.99
2022-12-26T03:49:00.075Z,99.99
2022-12-26T03:49:59.818Z,99.99
2022-12-26T03:50:59.776Z,99.99
2022-12-26T03:51:59.706Z,99.99
2022-12-26T03:52:59.668Z,99.99
2022-12-26T03:53:59.646Z,99.99
2022-12-26T03:54:59.505Z,99.99
2022-12-26T03:55:59.478Z,99.99
2022-12-26T03:56:59.426Z,99.99
2022-12-26T03:57:59.351Z,99.99
2022-12-26T03:58:59.299Z,99.99
2022-12-26T03:59:59.341Z,99.99
2022-12-26T04:00:59.212Z,99.99
2022-12-26T04:01:59.330Z,99.99
2022-12-26T04:02:59.090Z,99.99
2022-12-26T04:03:59.062Z,99.99
2022-12-26T04:04:58.931Z,99.99
2022-12-26T04:05:59.305Z,99.99
2022-12-26T04:06:58.866Z,99.99
2022-12-26T04:07:58.808Z,99.90
2022-12-26T04:08:58.687Z,99.99
2022-12-26T04:09:58.632Z,99.90
2022-12-26T04:10:58.540Z,99.79
2022-12-26T04:11:58.526Z,99.69
2022-12-26T04:12:58.451Z,99.69
2022-12-26T04:13:58.394Z,99.69
2022-12-26T04:14:58.233Z,99.69
2022-12-26T04:15:58.264Z,99.69
2022-12-26T04:16:58.157Z,99.69
2022-12-26T04:17:58.090Z,99.69
2022-12-26T04:18:57.995Z,99.79
2022-12-26T04:19:57.927Z,99.79
2022-12-26T04:20:57.868Z,99.69
2022-12-26T04:21:57.859Z,99.79
2022-12-26T04:22:57.826Z,99.79
2022-12-26T04:24:18.741Z,99.59
2022-12-26T04:24:57.666Z,99.49
2022-12-26T04:25:57.588Z,99.59
2022-12-26T04:26:57.533Z,99.54
2022-12-26T04:27:57.426Z,99.54
2022-12-26T04:28:57.341Z,99.24
2022-12-26T04:29:57.315Z,99.03
2022-12-26T04:30:57.276Z,99.24
2022-12-26T04:31:57.173Z,99.13
2022-12-26T04:32:57.102Z,99.13
2022-12-26T04:33:57.067Z,99.03
2022-12-26T04:34:56.961Z,99.24
2022-12-26T04:35:56.962Z,99.13
2022-12-26T04:36:56.879Z,99.24
2022-12-26T04:37:56.849Z,99.24
2022-12-26T04:38:56.746Z,99.24
2022-12-26T04:39:56.690Z,99.34
2022-12-26T04:40:56.610Z,99.34
2022-12-26T04:41:56.583Z,99.13
2022-12-26T04:42:56.462Z,99.13
2022-12-26T04:43:56.435Z,99.03
2022-12-26T04:44:56.349Z,99.13
2022-12-26T04:45:56.289Z,99.03
2022-12-26T04:46:56.244Z,99.13
2022-12-26T04:47:56.199Z,99.24
2022-12-26T04:48:56.080Z,99.24
2022-12-26T04:49:56.027Z,99.34
2022-12-26T04:50:55.989Z,99.34
2022-12-26T04:51:55.894Z,99.34
2022-12-26T04:52:55.879Z,99.34
2022-12-26T04:53:55.788Z,99.34
2022-12-26T04:54:55.745Z,99.34
2022-12-26T04:55:55.644Z,99.34
2022-12-26T04:56:55.642Z,99.34
2022-12-26T04:57:55.569Z,99.34
2022-12-26T04:58:55.527Z,99.54
2022-12-26T04:59:55.483Z,99.44
2022-12-26T05:00:55.409Z,99.44
2022-12-26T05:01:55.414Z,99.44
2022-12-26T05:02:55.315Z,99.50
2022-12-26T05:03:55.246Z,99.80
2022-12-26T05:04:55.055Z,99.99
2022-12-26T05:05:55.115Z,99.99
2022-12-26T05:06:55.027Z,99.99
2022-12-26T05:07:55.003Z,99.99
2022-12-26T05:08:54.908Z,99.99
2022-12-26T05:09:54.817Z,99.99
2022-12-26T05:10:54.763Z,99.99
2022-12-26T05:11:55.029Z,99.99
2022-12-26T05:12:54.693Z,99.99
2022-12-26T05:13:54.588Z,99.99
2022-12-26T05:14:54.496Z,99.99
2022-12-26T05:15:54.503Z,99.99
2022-12-26T05:16:54.373Z,99.99
2022-12-26T05:17:54.356Z,99.99
2022-12-26T05:18:54.220Z,99.99
2022-12-26T05:19:54.214Z,99.99
2022-12-26T05:20:54.118Z,99.99
2022-12-26T05:21:54.047Z,99.99
2022-12-26T05:22:54.046Z,99.99
2022-12-26T05:23:53.902Z,99.99
2022-12-26T05:24:53.886Z,99.99
2022-12-26T05:25:53.816Z,99.99
2022-12-26T05:26:53.742Z,99.99
2022-12-26T05:27:53.703Z,99.99
2022-12-26T05:28:53.610Z,99.99
2022-12-26T05:29:53.579Z,99.99
2022-12-26T05:30:53.561Z,99.99
2022-12-26T05:31:53.462Z,99.99
2022-12-26T05:32:53.362Z,99.99
2022-12-26T05:33:53.294Z,99.99
2022-12-26T05:34:53.236Z,99.99
2022-12-26T05:35:53.161Z,99.99
2022-12-26T05:36:53.071Z,99.99
2022-12-26T05:37:53.070Z,99.99
2022-12-26T05:38:52.961Z,99.99
2022-12-26T05:39:52.938Z,99.99
2022-12-26T05:40:52.862Z,99.99
2022-12-26T05:41:52.803Z,99.99
2022-12-26T05:42:52.758Z,99.99
2022-12-26T05:43:52.689Z,99.99
2022-12-26T05:44:52.569Z,99.99
2022-12-26T05:45:52.572Z,99.99
2022-12-26T05:46:52.486Z,99.99
2022-12-26T05:47:52.463Z,99.99
2022-12-26T05:48:52.322Z,99.99
2022-12-26T05:49:52.236Z,99.99
2022-12-26T05:50:52.144Z,99.99
2022-12-26T05:51:52.102Z,99.99
2022-12-26T05:52:52.039Z,99.99
2022-12-26T05:54:12.974Z,99.99
2022-12-26T05:54:51.945Z,99.99
2022-12-26T05:55:51.850Z,99.99
2022-12-26T05:56:51.786Z,99.99
2022-12-26T05:57:51.722Z,99.99
2022-12-26T05:58:51.721Z,99.99
2022-12-26T05:59:51.689Z,99.99
2022-12-26T06:00:51.586Z,99.99
2022-12-26T06:01:51.669Z,99.99
2022-12-26T06:02:51.715Z,99.99
2022-12-26T06:03:51.470Z,99.99
2022-12-26T06:04:51.362Z,99.99
2022-12-26T06:05:51.259Z,99.99
2022-12-26T06:06:51.208Z,99.99
2022-12-26T06:07:51.119Z,99.99
2022-12-26T06:08:51.107Z,99.99
2022-12-26T06:09:51.023Z,99.99
2022-12-26T06:10:50.979Z,99.99
2022-12-26T06:11:50.879Z,99.99
2022-12-26T06:12:50.798Z,99.99
2022-12-26T06:13:50.787Z,99.99
2022-12-26T06:14:50.705Z,99.99
2022-12-26T06:15:50.674Z,99.99
2022-12-26T06:16:50.589Z,99.99
2022-12-26T06:18:14.180Z,99.99
2022-12-26T06:18:50.381Z,99.99
2022-12-26T06:19:50.305Z,99.99
2022-12-26T06:20:50.240Z,99.99
2022-12-26T06:21:50.281Z,99.99
2022-12-26T06:22:50.202Z,99.99
2022-12-26T06:23:50.119Z,99.99
2022-12-26T06:24:50.069Z,99.99
2022-12-26T06:25:50.011Z,99.99
2022-12-26T06:26:49.916Z,99.99
2022-12-26T06:27:49.877Z,99.99
2022-12-26T06:28:49.817Z,99.99
2022-12-26T06:31:29.215Z,99.99
2022-12-26T06:32:30.065Z,99.99
2022-12-26T06:33:29.998Z,99.99
2022-12-26T06:34:29.942Z,99.99
2022-12-26T06:35:29.878Z,99.99
2022-12-26T06:36:29.830Z,99.99
2022-12-26T06:37:29.774Z,99.99
2022-12-26T06:38:29.713Z,99.99
2022-12-26T06:39:29.643Z,99.99
2022-12-26T06:40:29.556Z,99.99
2022-12-26T06:41:29.491Z,99.99
2022-12-26T06:42:29.467Z,99.99
2022-12-26T06:43:29.392Z,99.99
2022-12-26T06:44:29.328Z,99.99
2022-12-26T06:45:29.289Z,99.99
2022-12-26T06:46:29.178Z,99.99
2022-12-26T06:47:29.140Z,99.99
2022-12-26T06:48:50.055Z,99.99
2022-12-26T06:49:32.868Z,99.99
2022-12-26T06:50:28.942Z,99.99
2022-12-26T06:51:28.856Z,99.99
2022-12-26T06:52:28.788Z,99.99
2022-12-26T06:53:28.762Z,99.99
2022-12-26T06:54:28.685Z,99.99
2022-12-26T06:55:28.610Z,99.99
2022-12-26T06:56:28.557Z,99.99
2022-12-26T06:57:28.530Z,99.99
2022-12-26T06:58:28.434Z,99.99
2022-12-26T06:59:28.263Z,99.99
2022-12-26T07:00:28.390Z,99.99
2022-12-26T07:01:28.344Z,99.99
2022-12-26T07:02:28.176Z,99.99
2022-12-26T07:03:28.004Z,99.99
2022-12-26T07:04:28.025Z,99.99
2022-12-26T07:05:27.955Z,99.99
2022-12-26T07:07:37.046Z,99.99
2022-12-26T07:08:37.982Z,99.99
2022-12-26T07:09:37.878Z,99.99
2022-12-26T07:10:37.826Z,99.99
2022-12-26T07:11:37.757Z,99.99
2022-12-26T07:12:37.741Z,99.99
2022-12-26T07:13:37.656Z,99.99
2022-12-26T07:14:37.576Z,99.99
2022-12-26T07:15:37.518Z,99.99
2022-12-26T07:16:37.559Z,99.99
2022-12-26T07:17:37.383Z,99.99
2022-12-26T07:18:37.601Z,99.99
2022-12-26T07:19:37.244Z,99.99
2022-12-26T07:20:37.183Z,99.99
2022-12-26T07:21:40.762Z,99.99
2022-12-26T07:22:37.054Z,99.99
2022-12-26T07:23:36.990Z,99.99
2022-12-26T07:24:57.904Z,99.99
2022-12-26T07:25:36.851Z,99.99
2022-12-26T07:26:36.791Z,99.99
2022-12-26T07:27:36.753Z,99.99
2022-12-26T07:28:36.635Z,99.99
2022-12-26T07:29:36.595Z,99.99
2022-12-26T07:30:36.562Z,99.99
2022-12-26T07:31:36.539Z,99.99
2022-12-26T07:32:36.414Z,99.99
2022-12-26T07:33:36.324Z,99.99
2022-12-26T07:34:36.287Z,99.99
2022-12-26T07:35:36.215Z,99.99
2022-12-26T07:36:36.153Z,99.99
2022-12-26T07:37:36.093Z,99.99
2022-12-26T07:38:36.044Z,99.99
2022-12-26T07:39:35.960Z,99.99
2022-12-26T07:40:35.873Z,99.99
2022-12-26T07:41:35.848Z,99.99
2022-12-26T07:42:56.783Z,99.99
2022-12-26T07:43:35.732Z,99.99
2022-12-26T07:44:35.648Z,99.99
2022-12-26T07:45:40.350Z,99.99
2022-12-26T07:46:35.626Z,99.99
2022-12-26T07:47:35.422Z,99.99
2022-12-26T07:48:35.374Z,99.99
2022-12-26T07:49:35.355Z,99.99
2022-12-26T07:50:35.259Z,99.99
2022-12-26T07:51:35.232Z,99.99
2022-12-26T07:52:35.104Z,99.99
2022-12-26T07:53:35.041Z,99.99
2022-12-26T07:54:35.057Z,99.99
2022-12-26T07:55:34.937Z,99.99
2022-12-26T07:56:34.851Z,99.99
2022-12-26T07:57:50.258Z,99.99
2022-12-26T07:58:34.766Z,99.99
2022-12-26T07:59:34.745Z,99.99
2022-12-26T08:00:34.644Z,99.99
2022-12-26T08:01:34.740Z,99.99
2022-12-26T08:02:34.750Z,99.99
2022-12-26T08:03:34.583Z,99.99
2022-12-26T08:04:34.419Z,99.99
2022-12-26T08:05:34.341Z,99.99
2022-12-26T08:06:34.283Z,99.99
2022-12-26T08:07:34.177Z,99.99
2022-12-26T08:08:34.116Z,99.99
2022-12-26T08:09:34.093Z,99.99
2022-12-26T08:10:33.984Z,99.99
2022-12-26T08:11:34.011Z,99.99
2022-12-26T08:12:33.900Z,99.99
2022-12-26T08:13:33.828Z,99.99
2022-12-26T08:14:33.754Z,99.99
2022-12-26T08:15:33.697Z,99.99
2022-12-26T08:16:33.599Z,99.99
2022-12-26T08:17:33.548Z,99.99
2022-12-26T08:18:33.502Z,99.99
2022-12-26T08:19:33.422Z,99.99
2022-12-26T08:20:33.351Z,99.99
2022-12-26T08:21:33.284Z,99.99
2022-12-26T08:22:33.228Z,99.99
2022-12-26T08:23:33.144Z,99.99
2022-12-26T08:24:33.133Z,99.99
2022-12-26T08:25:33.000Z,99.99
2022-12-26T08:26:32.963Z,99.99
2022-12-26T08:27:32.901Z,99.99
2022-12-26T08:28:32.864Z,99.99
2022-12-26T08:29:32.776Z,99.99
2022-12-26T08:30:32.757Z,99.99
2022-12-26T08:31:32.619Z,99.99
2022-12-26T08:32:32.562Z,99.99
2022-12-26T08:33:32.526Z,99.99
2022-12-26T08:34:32.439Z,99.99
2022-12-26T08:35:32.415Z,99.99
2022-12-26T08:38:11.252Z,99.99
2022-12-26T08:39:12.173Z,99.99
2022-12-26T08:40:12.910Z,99.99
2022-12-26T08:41:12.054Z,99.99
2022-12-26T08:42:12.017Z,99.99
2022-12-26T08:43:33.387Z,99.99
2022-12-26T08:44:28.569Z,99.99
2022-12-26T08:45:11.830Z,99.99
2022-12-26T08:46:11.820Z,99.99
2022-12-26T08:47:11.671Z,99.99
2022-12-26T08:48:11.607Z,99.99
2022-12-26T08:49:11.530Z,99.99
2022-12-26T08:50:11.482Z,99.99
2022-12-26T08:51:11.452Z,99.99
2022-12-26T08:52:11.360Z,99.99
2022-12-26T08:53:11.273Z,99.99
2022-12-26T08:54:32.219Z,99.99
2022-12-26T08:55:11.149Z,99.99
2022-12-26T08:56:11.098Z,99.99
2022-12-26T08:57:11.067Z,99.99
2022-12-26T08:58:11.015Z,99.99
2022-12-26T08:59:10.914Z,99.99
2022-12-26T09:00:10.896Z,99.99
2022-12-26T09:01:10.854Z,99.99
2022-12-26T09:02:10.836Z,99.99
2022-12-26T09:03:10.750Z,99.99
2022-12-26T09:04:10.626Z,99.99
2022-12-26T09:05:10.559Z,99.99
2022-12-26T09:06:10.499Z,99.99
2022-12-26T09:07:10.412Z,99.99
2022-12-26T09:08:10.343Z,99.99
2022-12-26T09:09:10.251Z,99.99
2022-12-26T09:10:10.192Z,99.99
2022-12-26T09:11:10.165Z,99.99
2022-12-26T09:12:10.079Z,99.99
2022-12-26T09:13:09.999Z,99.99
2022-12-26T09:14:10.001Z,99.99
2022-12-26T09:15:09.903Z,99.99
2022-12-26T09:16:09.833Z,99.99
2022-12-26T09:17:09.800Z,99.99
2022-12-26T09:18:09.730Z,99.99
2022-12-26T09:19:09.648Z,99.99
2022-12-26T09:20:09.558Z,99.99
2022-12-26T09:21:09.499Z,99.99
2022-12-26T09:22:09.459Z,99.99
2022-12-26T09:23:09.371Z,99.99
2022-12-26T09:24:09.344Z,99.99
2022-12-26T09:25:09.238Z,99.99
2022-12-26T09:26:09.189Z,99.99
2022-12-26T09:27:09.108Z,99.99
2022-12-26T09:28:09.078Z,99.99
2022-12-26T09:29:08.989Z,99.99
2022-12-26T09:30:09.389Z,99.99
2022-12-26T09:31:08.940Z,99.99
2022-12-26T09:32:08.866Z,99.99
2022-12-26T09:33:08.732Z,99.99
2022-12-26T09:34:08.789Z,99.99
2022-12-26T09:35:08.616Z,99.99
2022-12-26T09:36:14.282Z,99.99
2022-12-26T09:37:08.519Z,99.99
2022-12-26T09:38:08.470Z,99.99
2022-12-26T09:39:08.446Z,99.99
2022-12-26T09:40:08.403Z,99.99
2022-12-26T09:41:08.282Z,99.99
2022-12-26T09:42:08.208Z,99.99
2022-12-26T09:43:08.131Z,99.99
2022-12-26T09:44:08.047Z,99.99
2022-12-26T09:45:08.000Z,99.99
2022-12-26T09:46:07.989Z,99.99
2022-12-26T09:47:07.908Z,99.99
2022-12-26T09:48:07.856Z,99.99
2022-12-26T09:49:07.753Z,99.99
2022-12-26T09:50:07.695Z,99.99
2022-12-26T09:51:07.643Z,99.99
2022-12-26T09:52:07.626Z,99.99
2022-12-26T09:53:07.498Z,99.99
2022-12-26T09:54:07.416Z,99.99
2022-12-26T09:55:07.395Z,99.99
2022-12-26T09:56:10.876Z,99.99
2022-12-26T09:57:11.393Z,99.99
2022-12-26T09:58:07.180Z,99.99
2022-12-26T09:59:07.097Z,99.99
2022-12-26T10:00:07.031Z,99.99
2022-12-26T10:01:07.137Z,99.99
2022-12-26T10:02:07.003Z,99.99
2022-12-26T10:03:06.863Z,99.99
2022-12-26T10:04:06.877Z,99.99
2022-12-26T10:05:06.813Z,99.99
2022-12-26T10:06:06.658Z,99.99
2022-12-26T10:07:06.638Z,99.99
2022-12-26T10:08:06.540Z,99.99
2022-12-26T10:09:06.476Z,99.99
2022-12-26T10:10:06.413Z,99.99
2022-12-26T10:11:06.351Z,99.99
2022-12-26T10:12:06.297Z,99.99
2022-12-26T10:13:06.258Z,99.99
2022-12-26T10:14:06.161Z,99.99
2022-12-26T10:15:06.122Z,99.99
2022-12-26T10:16:06.071Z,99.99
2022-12-26T10:17:05.994Z,99.99
2022-12-26T10:18:05.917Z,99.99
2022-12-26T10:19:05.837Z,99.99
2022-12-26T10:20:05.789Z,99.99
2022-12-26T10:21:05.768Z,99.99
2022-12-26T10:22:05.685Z,99.99
2022-12-26T10:23:05.592Z,99.99
2022-12-26T10:24:05.541Z,99.99
2022-12-26T10:25:05.432Z,99.99
2022-12-26T10:26:05.401Z,99.99
2022-12-26T10:27:05.360Z,99.99
2022-12-26T10:28:05.277Z,99.99
2022-12-26T10:29:05.209Z,99.99
2022-12-26T10:30:05.129Z,99.99
2022-12-26T10:31:05.166Z,99.99
2022-12-26T10:32:05.025Z,99.99
2022-12-26T10:33:05.026Z,99.99
2022-12-26T10:34:04.901Z,99.99
2022-12-26T10:35:04.811Z,99.99
2022-12-26T10:36:04.800Z,99.99
2022-12-26T10:37:04.777Z,99.99
2022-12-26T10:38:04.643Z,99.99
2022-12-26T10:39:04.579Z,99.99
2022-12-26T10:40:04.560Z,99.99
2022-12-26T10:41:04.471Z,99.99
2022-12-26T10:42:04.395Z,99.99
2022-12-26T10:43:04.327Z,99.99
2022-12-26T10:44:04.293Z,99.99
2022-12-26T10:45:04.201Z,99.99
2022-12-26T10:46:04.226Z,99.99
2022-12-26T10:47:04.051Z,99.99
2022-12-26T10:50:33.005Z,99.99
2022-12-26T10:51:33.966Z,99.99
2022-12-26T10:52:33.851Z,99.99
2022-12-26T10:53:33.781Z,99.99
2022-12-26T10:54:33.720Z,99.99
2022-12-26T10:55:35.072Z,99.99
2022-12-26T10:56:33.714Z,99.99
2022-12-26T10:57:33.580Z,99.99
2022-12-26T10:58:33.493Z,99.99
2022-12-26T10:59:33.456Z,99.99
2022-12-26T11:00:33.424Z,99.99
2022-12-26T11:01:33.500Z,99.99
2022-12-26T11:02:33.422Z,99.99
2022-12-26T11:03:33.174Z,99.99
2022-12-26T11:06:05.844Z,99.99
2022-12-26T11:06:33.067Z,99.99
2022-12-26T11:07:32.986Z,99.99
2022-12-26T11:08:36.189Z,99.99
2022-12-26T11:09:32.790Z,99.99
2022-12-26T11:10:32.734Z,99.99
2022-12-26T11:11:32.703Z,99.99
2022-12-26T11:12:32.593Z,99.99
2022-12-26T11:13:32.604Z,99.99
2022-12-26T11:14:33.972Z,99.99
2022-12-26T11:15:32.471Z,99.99
2022-12-26T11:16:32.579Z,99.99
2022-12-26T11:17:32.328Z,99.99
2022-12-26T11:18:32.210Z,99.99
2022-12-26T11:19:53.143Z,99.99
2022-12-26T11:20:32.124Z,99.99
2022-12-26T11:21:32.040Z,99.99
2022-12-26T11:22:31.946Z,99.99
2022-12-26T11:23:31.901Z,99.99
2022-12-26T11:24:31.844Z,99.99
2022-12-26T11:25:31.827Z,99.99
2022-12-26T11:26:31.860Z,99.99
2022-12-26T11:27:31.679Z,99.99
2022-12-26T11:28:31.576Z,99.99
2022-12-26T11:29:31.508Z,99.99
2022-12-26T11:30:31.451Z,99.99
2022-12-26T11:31:31.542Z,99.99
2022-12-26T11:32:31.353Z,99.99
2022-12-26T11:33:31.282Z,99.99
2022-12-26T11:34:31.204Z,99.99
2022-12-26T11:35:31.171Z,99.99
2022-12-26T11:36:31.176Z,99.99
2022-12-26T11:38:45.033Z,99.99
2022-12-26T11:39:41.131Z,99.99
2022-12-26T11:40:41.089Z,99.99
2022-12-26T11:41:40.976Z,99.99
2022-12-26T11:42:40.912Z,99.99
2022-12-26T11:43:40.885Z,99.99
2022-12-26T11:44:40.802Z,99.99
2022-12-26T11:45:40.767Z,99.99
2022-12-26T11:46:40.704Z,99.99
2022-12-26T11:47:40.586Z,99.99
2022-12-26T11:48:40.538Z,99.99
2022-12-26T11:49:40.515Z,99.99
2022-12-26T11:50:40.447Z,99.99
2022-12-26T11:51:40.389Z,99.99
2022-12-26T11:52:40.281Z,99.99
2022-12-26T11:53:40.290Z,99.99
2022-12-26T11:54:40.190Z,99.99
2022-12-26T11:56:01.145Z,99.99
2022-12-26T11:56:40.072Z,99.99
2022-12-26T11:57:39.972Z,99.99
2022-12-26T11:58:39.908Z,99.99
2022-12-26T11:59:39.871Z,99.99
2022-12-26T12:00:39.779Z,99.99
2022-12-26T12:01:39.835Z,99.99
2022-12-26T12:02:39.706Z,99.99
2022-12-26T12:03:45.249Z,99.99
2022-12-26T12:04:39.505Z,99.99
2022-12-26T12:05:39.488Z,99.99
2022-12-26T12:06:39.447Z,99.99
2022-12-26T12:07:39.323Z,99.99
2022-12-26T12:08:39.250Z,99.65
2022-12-26T12:09:39.239Z,99.65
2022-12-26T12:10:39.144Z,99.99
2022-12-26T12:11:39.075Z,99.99
2022-12-26T12:12:39.023Z,99.99
2022-12-26T12:13:38.996Z,99.99
2022-12-26T12:14:38.886Z,99.99
2022-12-26T12:15:38.830Z,99.99
2022-12-26T12:16:38.879Z,99.99
2022-12-26T12:17:38.732Z,99.99
2022-12-26T12:18:38.631Z,99.99
2022-12-26T12:19:38.591Z,99.99
2022-12-26T12:20:38.536Z,99.99
2022-12-26T12:21:38.442Z,99.99
2022-12-26T12:22:38.351Z,99.99
2022-12-26T12:23:38.325Z,99.75
2022-12-26T12:24:38.246Z,99.85
2022-12-26T12:25:38.227Z,99.75
2022-12-26T12:26:38.152Z,99.65
2022-12-26T12:27:38.090Z,99.65
2022-12-26T12:28:38.014Z,99.75
2022-12-26T12:29:37.957Z,99.99
2022-12-26T12:30:37.869Z,99.99
2022-12-26T12:31:37.805Z,99.65
2022-12-26T12:32:37.770Z,99.54
2022-12-26T12:33:37.655Z,99.65
2022-12-26T12:34:37.586Z,99.85
2022-12-26T12:35:37.619Z,99.99
2022-12-26T12:36:37.495Z,99.99
2022-12-26T12:37:37.498Z,99.99
2022-12-26T12:38:37.375Z,99.99
2022-12-26T12:39:37.280Z,99.99
2022-12-26T12:40:37.253Z,99.99
2022-12-26T12:41:37.169Z,99.99
2022-12-26T12:42:37.107Z,99.99
2022-12-26T12:43:37.060Z,99.99
2022-12-26T12:44:36.958Z,99.99
2022-12-26T12:45:36.957Z,99.99
2022-12-26T12:46:36.830Z,99.99
2022-12-26T12:47:36.790Z,99.99
2022-12-26T12:48:36.750Z,99.99
2022-12-26T12:51:15.566Z,99.99
2022-12-26T12:52:16.482Z,99.99
2022-12-26T12:53:16.447Z,99.99
2022-12-26T12:54:16.419Z,99.99
2022-12-26T12:55:16.358Z,99.99
2022-12-26T12:56:16.263Z,99.99
2022-12-26T12:57:16.206Z,99.99
2022-12-26T12:58:16.110Z,99.99
2022-12-26T12:59:16.067Z,99.99
2022-12-26T13:00:16.036Z,99.99
2022-12-26T13:01:16.084Z,99.99
2022-12-26T13:02:20.470Z,99.99
2022-12-26T13:03:15.786Z,99.99
2022-12-26T13:04:15.723Z,99.99
2022-12-26T13:05:15.664Z,99.99
2022-12-26T13:06:15.633Z,99.99